sensor_id;sensor_type;location;lat;lon;timestamp;P1;durP1;ratioP1;P2;durP2;ratioP2
18592;SDS011;9426;54.118;17.948;2023-05-10T00:03:24;15.43;;;5.63;;
18592;SDS011;9426;54.118;17.948;2023-05-10T00:08:48;13.23;;;5.77;;
18592;SDS011;9426;54.118;17.948;2023-05-10T00:14:11;12.07;;;5.97;;
18592;SDS011;9426;54.118;17.948;2023-05-10T00:19:36;12.83;;;5.53;;
18592;SDS011;9426;54.118;17.948;2023-05-10T00:25:00;10.37;;;5.67;;
18592;SDS011;9426;54.118;17.948;2023-05-10T00:30:24;13.33;;;5.90;;
18592;SDS011;9426;54.118;17.948;2023-05-10T00:35:50;13.23;;;6.47;;
18592;SDS011;9426;54.118;17.948;2023-05-10T00:41:14;13.77;;;5.73;;
18592;SDS011;9426;54.118;17.948;2023-05-10T00:46:39;13.83;;;5.80;;
18592;SDS011;9426;54.118;17.948;2023-05-10T00:52:05;14.37;;;6.60;;
18592;SDS011;9426;54.118;17.948;2023-05-10T00:57:28;13.50;;;5.80;;
18592;SDS011;9426;54.118;17.948;2023-05-10T01:02:53;14.33;;;5.70;;
18592;SDS011;9426;54.118;17.948;2023-05-10T01:08:18;11.40;;;5.47;;
18592;SDS011;9426;54.118;17.948;2023-05-10T01:13:42;15.83;;;5.90;;
18592;SDS011;9426;54.118;17.948;2023-05-10T01:19:19;16.20;;;6.03;;
18592;SDS011;9426;54.118;17.948;2023-05-10T01:24:58;12.17;;;5.83;;
18592;SDS011;9426;54.118;17.948;2023-05-10T01:36:40;9.20;;;4.93;;
18592;SDS011;9426;54.118;17.948;2023-05-10T01:42:09;12.67;;;5.57;;
18592;SDS011;9426;54.118;17.948;2023-05-10T01:47:37;10.10;;;5.47;;
18592;SDS011;9426;54.118;17.948;2023-05-10T01:53:06;13.13;;;5.73;;
18592;SDS011;9426;54.118;17.948;2023-05-10T01:58:32;12.77;;;5.03;;
18592;SDS011;9426;54.118;17.948;2023-05-10T02:03:58;12.33;;;5.90;;
18592;SDS011;9426;54.118;17.948;2023-05-10T02:09:26;10.33;;;5.67;;
18592;SDS011;9426;54.118;17.948;2023-05-10T02:14:52;15.87;;;5.60;;
18592;SDS011;9426;54.118;17.948;2023-05-10T02:20:17;12.73;;;5.73;;
18592;SDS011;9426;54.118;17.948;2023-05-10T02:25:45;12.73;;;5.67;;
18592;SDS011;9426;54.118;17.948;2023-05-10T02:31:11;13.73;;;5.50;;
18592;SDS011;9426;54.118;17.948;2023-05-10T02:36:35;11.53;;;5.57;;
18592;SDS011;9426;54.118;17.948;2023-05-10T02:42:01;12.73;;;5.63;;
18592;SDS011;9426;54.118;17.948;2023-05-10T02:47:25;10.83;;;5.47;;
18592;SDS011;9426;54.118;17.948;2023-05-10T02:52:50;14.47;;;5.13;;
18592;SDS011;9426;54.118;17.948;2023-05-10T02:58:16;12.57;;;5.40;;
18592;SDS011;9426;54.118;17.948;2023-05-10T03:03:40;11.60;;;5.73;;
18592;SDS011;9426;54.118;17.948;2023-05-10T03:09:04;10.37;;;5.20;;
18592;SDS011;9426;54.118;17.948;2023-05-10T03:14:38;12.93;;;5.93;;
18592;SDS011;9426;54.118;17.948;2023-05-10T03:20:12;10.57;;;5.30;;
18592;SDS011;9426;54.118;17.948;2023-05-10T03:25:44;12.90;;;5.90;;
18592;SDS011;9426;54.118;17.948;2023-05-10T03:31:13;10.87;;;5.33;;
18592;SDS011;9426;54.118;17.948;2023-05-10T03:36:37;10.50;;;5.43;;
18592;SDS011;9426;54.118;17.948;2023-05-10T03:42:00;17.77;;;6.70;;
18592;SDS011;9426;54.118;17.948;2023-05-10T03:47:26;16.57;;;6.23;;
18592;SDS011;9426;54.118;17.948;2023-05-10T03:52:52;13.90;;;5.73;;
18592;SDS011;9426;54.118;17.948;2023-05-10T03:58:15;12.20;;;5.60;;
18592;SDS011;9426;54.118;17.948;2023-05-10T04:03:41;12.90;;;5.30;;
18592;SDS011;9426;54.118;17.948;2023-05-10T04:09:06;23.77;;;6.80;;
18592;SDS011;9426;54.118;17.948;2023-05-10T04:14:29;15.90;;;5.80;;
18592;SDS011;9426;54.118;17.948;2023-05-10T04:19:55;12.47;;;5.63;;
18592;SDS011;9426;54.118;17.948;2023-05-10T04:25:19;20.27;;;6.23;;
18592;SDS011;9426;54.118;17.948;2023-05-10T04:30:42;10.37;;;5.93;;
18592;SDS011;9426;54.118;17.948;2023-05-10T04:36:07;14.10;;;6.47;;
18592;SDS011;9426;54.118;17.948;2023-05-10T04:41:31;13.83;;;6.10;;
18592;SDS011;9426;54.118;17.948;2023-05-10T04:46:55;78.13;;;8.40;;
18592;SDS011;9426;54.118;17.948;2023-05-10T04:52:20;16.80;;;5.50;;
18592;SDS011;9426;54.118;17.948;2023-05-10T04:57:43;12.73;;;5.70;;
18592;SDS011;9426;54.118;17.948;2023-05-10T05:03:07;10.37;;;5.30;;
18592;SDS011;9426;54.118;17.948;2023-05-10T05:08:32;8.43;;;4.60;;
18592;SDS011;9426;54.118;17.948;2023-05-10T05:13:55;8.43;;;4.70;;
18592;SDS011;9426;54.118;17.948;2023-05-10T05:19:20;15.90;;;5.13;;
18592;SDS011;9426;54.118;17.948;2023-05-10T05:24:45;33.13;;;5.87;;
18592;SDS011;9426;54.118;17.948;2023-05-10T05:30:10;10.43;;;4.60;;
18592;SDS011;9426;54.118;17.948;2023-05-10T05:35:34;8.33;;;4.50;;
18592;SDS011;9426;54.118;17.948;2023-05-10T05:40:59;11.40;;;4.47;;
18592;SDS011;9426;54.118;17.948;2023-05-10T05:46:24;11.53;;;4.23;;
18592;SDS011;9426;54.118;17.948;2023-05-10T05:51:47;58.77;;;5.50;;
18592;SDS011;9426;54.118;17.948;2023-05-10T05:57:12;6.47;;;3.63;;
18592;SDS011;9426;54.118;17.948;2023-05-10T06:02:36;22.67;;;4.37;;
18592;SDS011;9426;54.118;17.948;2023-05-10T06:07:59;10.60;;;3.60;;
18592;SDS011;9426;54.118;17.948;2023-05-10T06:13:24;10.63;;;3.70;;
18592;SDS011;9426;54.118;17.948;2023-05-10T06:18:49;15.33;;;3.93;;
18592;SDS011;9426;54.118;17.948;2023-05-10T06:24:13;12.13;;;3.70;;
18592;SDS011;9426;54.118;17.948;2023-05-10T06:29:38;9.13;;;3.20;;
18592;SDS011;9426;54.118;17.948;2023-05-10T06:35:02;6.33;;;2.90;;
18592;SDS011;9426;54.118;17.948;2023-05-10T06:40:25;6.80;;;3.40;;
18592;SDS011;9426;54.118;17.948;2023-05-10T06:45:50;5.20;;;3.00;;
18592;SDS011;9426;54.118;17.948;2023-05-10T06:51:14;9.57;;;3.30;;
18592;SDS011;9426;54.118;17.948;2023-05-10T06:56:39;8.33;;;3.10;;
18592;SDS011;9426;54.118;17.948;2023-05-10T07:02:03;6.47;;;2.83;;
18592;SDS011;9426;54.118;17.948;2023-05-10T07:07:28;11.13;;;3.27;;
18592;SDS011;9426;54.118;17.948;2023-05-10T07:12:51;12.10;;;3.43;;
18592;SDS011;9426;54.118;17.948;2023-05-10T07:18:17;6.70;;;2.60;;
18592;SDS011;9426;54.118;17.948;2023-05-10T07:23:40;7.07;;;2.23;;
18592;SDS011;9426;54.118;17.948;2023-05-10T07:29:04;7.10;;;2.10;;
18592;SDS011;9426;54.118;17.948;2023-05-10T07:34:30;7.50;;;2.30;;
18592;SDS011;9426;54.118;17.948;2023-05-10T07:39:53;40.90;;;3.57;;
18592;SDS011;9426;54.118;17.948;2023-05-10T07:45:17;12.73;;;2.80;;
18592;SDS011;9426;54.118;17.948;2023-05-10T07:50:42;11.67;;;2.37;;
18592;SDS011;9426;54.118;17.948;2023-05-10T07:56:20;6.00;;;2.50;;
18592;SDS011;9426;54.118;17.948;2023-05-10T08:01:46;46.93;;;4.17;;
18592;SDS011;9426;54.118;17.948;2023-05-10T08:07:11;7.20;;;2.30;;
18592;SDS011;9426;54.118;17.948;2023-05-10T08:12:34;20.60;;;3.23;;
18592;SDS011;9426;54.118;17.948;2023-05-10T08:17:58;6.27;;;2.30;;
18592;SDS011;9426;54.118;17.948;2023-05-10T08:29:12;9.47;;;2.40;;
18592;SDS011;9426;54.118;17.948;2023-05-10T08:34:35;13.50;;;2.73;;
18592;SDS011;9426;54.118;17.948;2023-05-10T08:40:00;83.27;;;6.23;;
18592;SDS011;9426;54.118;17.948;2023-05-10T08:45:24;8.13;;;2.33;;
18592;SDS011;9426;54.118;17.948;2023-05-10T08:50:50;16.13;;;2.27;;
18592;SDS011;9426;54.118;17.948;2023-05-10T08:56:17;5.77;;;2.50;;
18592;SDS011;9426;54.118;17.948;2023-05-10T09:01:41;12.77;;;2.70;;
18592;SDS011;9426;54.118;17.948;2023-05-10T09:07:07;7.17;;;2.40;;
18592;SDS011;9426;54.118;17.948;2023-05-10T09:12:32;17.87;;;2.93;;
18592;SDS011;9426;54.118;17.948;2023-05-10T09:17:56;9.97;;;2.57;;
18592;SDS011;9426;54.118;17.948;2023-05-10T09:23:22;7.50;;;2.03;;
18592;SDS011;9426;54.118;17.948;2023-05-10T09:28:54;5.93;;;1.83;;
18592;SDS011;9426;54.118;17.948;2023-05-10T09:34:19;9.03;;;2.00;;
18592;SDS011;9426;54.118;17.948;2023-05-10T09:39:43;6.93;;;2.10;;
18592;SDS011;9426;54.118;17.948;2023-05-10T09:45:08;7.40;;;2.03;;
18592;SDS011;9426;54.118;17.948;2023-05-10T09:50:32;6.13;;;2.10;;
18592;SDS011;9426;54.118;17.948;2023-05-10T09:55:56;9.70;;;2.47;;
18592;SDS011;9426;54.118;17.948;2023-05-10T10:01:21;22.77;;;2.73;;
18592;SDS011;9426;54.118;17.948;2023-05-10T10:06:58;23.37;;;2.60;;
18592;SDS011;9426;54.118;17.948;2023-05-10T10:12:22;7.03;;;1.80;;
18592;SDS011;9426;54.118;17.948;2023-05-10T10:17:47;9.33;;;2.43;;
18592;SDS011;9426;54.118;17.948;2023-05-10T10:23:11;6.43;;;2.43;;
18592;SDS011;9426;54.118;17.948;2023-05-10T10:28:39;7.40;;;2.40;;
18592;SDS011;9426;54.118;17.948;2023-05-10T10:34:16;5.43;;;2.20;;
18592;SDS011;9426;54.118;17.948;2023-05-10T10:39:47;6.38;;;2.10;;
18592;SDS011;9426;54.118;17.948;2023-05-10T10:45:12;13.90;;;2.50;;
18592;SDS011;9426;54.118;17.948;2023-05-10T10:50:45;9.27;;;2.38;;
18592;SDS011;9426;54.118;17.948;2023-05-10T10:56:08;15.07;;;2.65;;
18592;SDS011;9426;54.118;17.948;2023-05-10T11:01:34;15.63;;;2.70;;
18592;SDS011;9426;54.118;17.948;2023-05-10T11:12:50;4.80;;;2.05;;
18592;SDS011;9426;54.118;17.948;2023-05-10T11:18:19;5.13;;;1.92;;
18592;SDS011;9426;54.118;17.948;2023-05-10T11:23:52;8.43;;;2.22;;
18592;SDS011;9426;54.118;17.948;2023-05-10T11:29:18;15.18;;;2.40;;
18592;SDS011;9426;54.118;17.948;2023-05-10T11:34:41;4.50;;;2.00;;
18592;SDS011;9426;54.118;17.948;2023-05-10T11:40:12;4.63;;;1.90;;
18592;SDS011;9426;54.118;17.948;2023-05-10T11:45:35;12.60;;;2.50;;
18592;SDS011;9426;54.118;17.948;2023-05-10T11:51:00;5.28;;;2.00;;
18592;SDS011;9426;54.118;17.948;2023-05-10T11:56:25;10.15;;;2.20;;
18592;SDS011;9426;54.118;17.948;2023-05-10T12:01:49;8.25;;;2.30;;
18592;SDS011;9426;54.118;17.948;2023-05-10T12:07:12;8.68;;;1.80;;
18592;SDS011;9426;54.118;17.948;2023-05-10T12:12:38;5.07;;;1.98;;
18592;SDS011;9426;54.118;17.948;2023-05-10T12:18:04;11.52;;;2.38;;
18592;SDS011;9426;54.118;17.948;2023-05-10T12:23:29;3.55;;;1.75;;
18592;SDS011;9426;54.118;17.948;2023-05-10T12:28:55;7.40;;;2.28;;
18592;SDS011;9426;54.118;17.948;2023-05-10T12:34:34;7.60;;;1.92;;
18592;SDS011;9426;54.118;17.948;2023-05-10T12:39:59;7.10;;;1.70;;
18592;SDS011;9426;54.118;17.948;2023-05-10T12:45:24;7.38;;;1.92;;
18592;SDS011;9426;54.118;17.948;2023-05-10T12:50:48;149.40;;;10.95;;
18592;SDS011;9426;54.118;17.948;2023-05-10T12:56:12;7.65;;;1.90;;
18592;SDS011;9426;54.118;17.948;2023-05-10T13:01:37;12.27;;;2.35;;
18592;SDS011;9426;54.118;17.948;2023-05-10T13:07:04;9.70;;;1.92;;
18592;SDS011;9426;54.118;17.948;2023-05-10T13:12:41;9.13;;;1.70;;
18592;SDS011;9426;54.118;17.948;2023-05-10T13:18:25;10.15;;;2.15;;
18592;SDS011;9426;54.118;17.948;2023-05-10T13:23:49;6.45;;;2.10;;
18592;SDS011;9426;54.118;17.948;2023-05-10T13:29:16;6.72;;;1.98;;
18592;SDS011;9426;54.118;17.948;2023-05-10T13:34:41;11.75;;;2.20;;
18592;SDS011;9426;54.118;17.948;2023-05-10T13:40:05;10.20;;;2.03;;
18592;SDS011;9426;54.118;17.948;2023-05-10T13:45:30;7.55;;;1.95;;
18592;SDS011;9426;54.118;17.948;2023-05-10T13:50:55;7.95;;;2.00;;
18592;SDS011;9426;54.118;17.948;2023-05-10T13:56:18;5.05;;;2.00;;
18592;SDS011;9426;54.118;17.948;2023-05-10T14:01:41;6.53;;;2.20;;
18592;SDS011;9426;54.118;17.948;2023-05-10T14:07:07;11.85;;;2.00;;
18592;SDS011;9426;54.118;17.948;2023-05-10T14:12:30;25.55;;;3.25;;
18592;SDS011;9426;54.118;17.948;2023-05-10T14:17:54;13.52;;;2.00;;
18592;SDS011;9426;54.118;17.948;2023-05-10T14:23:19;4.63;;;1.95;;
18592;SDS011;9426;54.118;17.948;2023-05-10T14:28:46;25.88;;;3.10;;
18592;SDS011;9426;54.118;17.948;2023-05-10T14:34:09;45.05;;;3.58;;
18592;SDS011;9426;54.118;17.948;2023-05-10T14:39:34;12.68;;;1.95;;
18592;SDS011;9426;54.118;17.948;2023-05-10T14:44:58;6.78;;;2.05;;
18592;SDS011;9426;54.118;17.948;2023-05-10T14:50:21;66.55;;;5.25;;
18592;SDS011;9426;54.118;17.948;2023-05-10T14:55:53;8.90;;;2.28;;
18592;SDS011;9426;54.118;17.948;2023-05-10T15:01:17;11.60;;;1.65;;
18592;SDS011;9426;54.118;17.948;2023-05-10T15:06:40;6.97;;;1.65;;
18592;SDS011;9426;54.118;17.948;2023-05-10T15:12:06;6.50;;;1.83;;
18592;SDS011;9426;54.118;17.948;2023-05-10T15:17:29;14.20;;;2.42;;
18592;SDS011;9426;54.118;17.948;2023-05-10T15:22:53;5.78;;;1.80;;
18592;SDS011;9426;54.118;17.948;2023-05-10T15:28:18;19.10;;;2.78;;
18592;SDS011;9426;54.118;17.948;2023-05-10T15:33:42;5.75;;;2.15;;
18592;SDS011;9426;54.118;17.948;2023-05-10T15:39:06;32.35;;;3.78;;
18592;SDS011;9426;54.118;17.948;2023-05-10T15:44:31;6.45;;;2.33;;
18592;SDS011;9426;54.118;17.948;2023-05-10T15:49:56;5.25;;;1.85;;
18592;SDS011;9426;54.118;17.948;2023-05-10T15:55:20;8.15;;;1.83;;
18592;SDS011;9426;54.118;17.948;2023-05-10T16:00:45;8.80;;;2.40;;
18592;SDS011;9426;54.118;17.948;2023-05-10T16:06:08;7.30;;;1.88;;
18592;SDS011;9426;54.118;17.948;2023-05-10T16:11:31;8.48;;;2.03;;
18592;SDS011;9426;54.118;17.948;2023-05-10T16:16:56;8.52;;;1.80;;
18592;SDS011;9426;54.118;17.948;2023-05-10T16:22:20;5.72;;;1.92;;
18592;SDS011;9426;54.118;17.948;2023-05-10T16:27:47;11.02;;;2.13;;
18592;SDS011;9426;54.118;17.948;2023-05-10T16:33:12;6.38;;;1.77;;
18592;SDS011;9426;54.118;17.948;2023-05-10T16:38:36;10.15;;;2.17;;
18592;SDS011;9426;54.118;17.948;2023-05-10T16:44:00;22.17;;;3.38;;
18592;SDS011;9426;54.118;17.948;2023-05-10T16:49:25;11.65;;;2.55;;
18592;SDS011;9426;54.118;17.948;2023-05-10T16:54:49;10.93;;;2.10;;
18592;SDS011;9426;54.118;17.948;2023-05-10T17:00:13;8.82;;;2.15;;
18592;SDS011;9426;54.118;17.948;2023-05-10T17:05:39;6.40;;;2.20;;
18592;SDS011;9426;54.118;17.948;2023-05-10T17:11:03;12.40;;;2.53;;
18592;SDS011;9426;54.118;17.948;2023-05-10T17:16:28;11.23;;;2.90;;
18592;SDS011;9426;54.118;17.948;2023-05-10T17:21:54;15.63;;;2.42;;
18592;SDS011;9426;54.118;17.948;2023-05-10T17:27:18;8.23;;;2.67;;
18592;SDS011;9426;54.118;17.948;2023-05-10T17:32:41;10.50;;;2.67;;
18592;SDS011;9426;54.118;17.948;2023-05-10T17:38:07;4.57;;;2.40;;
18592;SDS011;9426;54.118;17.948;2023-05-10T17:43:31;6.23;;;2.87;;
18592;SDS011;9426;54.118;17.948;2023-05-10T17:48:54;7.47;;;2.57;;
18592;SDS011;9426;54.118;17.948;2023-05-10T17:54:19;4.97;;;2.37;;
18592;SDS011;9426;54.118;17.948;2023-05-10T17:59:43;7.67;;;2.43;;
18592;SDS011;9426;54.118;17.948;2023-05-10T18:05:07;4.63;;;2.07;;
18592;SDS011;9426;54.118;17.948;2023-05-10T18:10:34;17.33;;;3.40;;
18592;SDS011;9426;54.118;17.948;2023-05-10T18:16:00;8.87;;;3.23;;
18592;SDS011;9426;54.118;17.948;2023-05-10T18:21:25;5.90;;;2.33;;
18592;SDS011;9426;54.118;17.948;2023-05-10T18:26:50;27.60;;;3.93;;
18592;SDS011;9426;54.118;17.948;2023-05-10T18:32:14;6.97;;;3.03;;
18592;SDS011;9426;54.118;17.948;2023-05-10T18:37:38;14.53;;;3.23;;
18592;SDS011;9426;54.118;17.948;2023-05-10T18:43:03;6.93;;;2.97;;
18592;SDS011;9426;54.118;17.948;2023-05-10T18:48:27;10.23;;;2.83;;
18592;SDS011;9426;54.118;17.948;2023-05-10T18:53:55;10.43;;;3.57;;
18592;SDS011;9426;54.118;17.948;2023-05-10T18:59:21;5.77;;;2.90;;
18592;SDS011;9426;54.118;17.948;2023-05-10T19:04:45;8.07;;;2.90;;
18592;SDS011;9426;54.118;17.948;2023-05-10T19:10:09;5.90;;;3.00;;
18592;SDS011;9426;54.118;17.948;2023-05-10T19:15:37;9.70;;;3.60;;
18592;SDS011;9426;54.118;17.948;2023-05-10T19:21:01;14.87;;;4.17;;
18592;SDS011;9426;54.118;17.948;2023-05-10T19:26:29;19.13;;;4.90;;
18592;SDS011;9426;54.118;17.948;2023-05-10T19:31:56;10.50;;;4.10;;
18592;SDS011;9426;54.118;17.948;2023-05-10T19:37:20;15.90;;;4.63;;
18592;SDS011;9426;54.118;17.948;2023-05-10T19:42:45;8.07;;;3.33;;
18592;SDS011;9426;54.118;17.948;2023-05-10T19:48:10;9.37;;;4.10;;
18592;SDS011;9426;54.118;17.948;2023-05-10T19:53:34;11.63;;;4.23;;
18592;SDS011;9426;54.118;17.948;2023-05-10T19:58:58;10.57;;;3.97;;
18592;SDS011;9426;54.118;17.948;2023-05-10T20:04:24;9.97;;;4.00;;
18592;SDS011;9426;54.118;17.948;2023-05-10T20:09:49;8.20;;;4.00;;
18592;SDS011;9426;54.118;17.948;2023-05-10T20:15:12;9.60;;;4.20;;
18592;SDS011;9426;54.118;17.948;2023-05-10T20:20:37;10.37;;;3.67;;
18592;SDS011;9426;54.118;17.948;2023-05-10T20:26:02;10.17;;;3.73;;
18592;SDS011;9426;54.118;17.948;2023-05-10T20:31:26;6.50;;;3.77;;
18592;SDS011;9426;54.118;17.948;2023-05-10T20:36:50;8.73;;;3.60;;
18592;SDS011;9426;54.118;17.948;2023-05-10T20:42:14;9.00;;;4.07;;
18592;SDS011;9426;54.118;17.948;2023-05-10T20:47:38;13.37;;;4.13;;
18592;SDS011;9426;54.118;17.948;2023-05-10T20:53:03;15.53;;;4.90;;
18592;SDS011;9426;54.118;17.948;2023-05-10T20:58:27;15.13;;;5.00;;
18592;SDS011;9426;54.118;17.948;2023-05-10T21:03:51;15.67;;;5.53;;
18592;SDS011;9426;54.118;17.948;2023-05-10T21:09:16;12.27;;;4.73;;
18592;SDS011;9426;54.118;17.948;2023-05-10T21:14:39;15.37;;;5.87;;
18592;SDS011;9426;54.118;17.948;2023-05-10T21:20:05;13.17;;;5.03;;
18592;SDS011;9426;54.118;17.948;2023-05-10T21:25:31;14.33;;;5.30;;
18592;SDS011;9426;54.118;17.948;2023-05-10T21:30:55;15.50;;;4.77;;
18592;SDS011;9426;54.118;17.948;2023-05-10T21:36:19;13.77;;;5.17;;
18592;SDS011;9426;54.118;17.948;2023-05-10T21:41:45;10.27;;;4.77;;
18592;SDS011;9426;54.118;17.948;2023-05-10T21:47:09;14.00;;;5.00;;
18592;SDS011;9426;54.118;17.948;2023-05-10T21:52:32;12.07;;;5.17;;
18592;SDS011;9426;54.118;17.948;2023-05-10T21:57:58;13.63;;;4.87;;
18592;SDS011;9426;54.118;17.948;2023-05-10T22:03:21;13.57;;;4.63;;
18592;SDS011;9426;54.118;17.948;2023-05-10T22:08:45;10.10;;;4.50;;
18592;SDS011;9426;54.118;17.948;2023-05-10T22:14:10;12.27;;;4.20;;
18592;SDS011;9426;54.118;17.948;2023-05-10T22:19:33;11.70;;;4.20;;
18592;SDS011;9426;54.118;17.948;2023-05-10T22:24:57;8.80;;;4.33;;
18592;SDS011;9426;54.118;17.948;2023-05-10T22:30:22;12.43;;;4.93;;
18592;SDS011;9426;54.118;17.948;2023-05-10T22:35:46;16.67;;;4.40;;
18592;SDS011;9426;54.118;17.948;2023-05-10T22:41:09;9.97;;;3.97;;
18592;SDS011;9426;54.118;17.948;2023-05-10T22:46:35;10.97;;;4.77;;
18592;SDS011;9426;54.118;17.948;2023-05-10T22:51:58;11.90;;;5.07;;
18592;SDS011;9426;54.118;17.948;2023-05-10T22:57:22;11.23;;;4.00;;
18592;SDS011;9426;54.118;17.948;2023-05-10T23:02:47;11.93;;;4.00;;
18592;SDS011;9426;54.118;17.948;2023-05-10T23:08:12;12.93;;;4.77;;
18592;SDS011;9426;54.118;17.948;2023-05-10T23:13:35;9.47;;;4.20;;
18592;SDS011;9426;54.118;17.948;2023-05-10T23:19:00;10.87;;;3.90;;
18592;SDS011;9426;54.118;17.948;2023-05-10T23:24:23;13.30;;;4.57;;
18592;SDS011;9426;54.118;17.948;2023-05-10T23:29:47;8.93;;;4.07;;
18592;SDS011;9426;54.118;17.948;2023-05-10T23:35:14;10.60;;;3.90;;
18592;SDS011;9426;54.118;17.948;2023-05-10T23:40:37;8.77;;;4.23;;
18592;SDS011;9426;54.118;17.948;2023-05-10T23:46:01;10.33;;;4.10;;
18592;SDS011;9426;54.118;17.948;2023-05-10T23:51:28;8.97;;;4.00;;
18592;SDS011;9426;54.118;17.948;2023-05-10T23:56:52;6.63;;;3.90;;
